createdAt,value
2018-06-09T00:00:28.582Z,0.00
2018-06-09T00:01:28.569Z,0.00
2018-06-09T00:02:28.554Z,0.00
2018-06-09T00:03:28.542Z,0.00
2018-06-09T00:04:28.534Z,0.00
2018-06-09T00:05:28.517Z,0.00
2018-06-09T00:06:28.502Z,0.00
2018-06-09T00:07:28.489Z,0.00
2018-06-09T00:08:28.478Z,0.00
2018-06-09T00:09:28.466Z,0.00
2018-06-09T00:10:28.449Z,0.00
2018-06-09T00:11:28.440Z,0.00
2018-06-09T00:12:28.423Z,0.00
2018-06-09T00:13:28.420Z,0.00
2018-06-09T00:14:28.398Z,0.00
2018-06-09T00:15:28.384Z,0.00
2018-06-09T00:16:28.372Z,0.00
2018-06-09T00:17:28.359Z,0.00
2018-06-09T00:18:28.344Z,0.00
2018-06-09T00:19:28.330Z,0.00
2018-06-09T00:20:28.318Z,0.00
2018-06-09T00:21:28.306Z,0.00
2018-06-09T00:22:28.296Z,0.00
2018-06-09T00:23:28.277Z,0.00
2018-06-09T00:24:28.266Z,0.00
2018-06-09T00:25:28.252Z,0.00
2018-06-09T00:26:28.237Z,0.00
2018-06-09T00:27:28.225Z,0.00
2018-06-09T00:28:28.210Z,0.00
2018-06-09T00:29:28.197Z,0.00
2018-06-09T00:30:28.184Z,0.00
2018-06-09T00:31:28.176Z,0.00
2018-06-09T00:32:28.157Z,0.00
2018-06-09T00:33:28.143Z,0.00
2018-06-09T00:34:28.130Z,0.00
2018-06-09T00:35:28.114Z,0.00
2018-06-09T00:36:28.104Z,0.00
2018-06-09T00:37:28.090Z,0.00
2018-06-09T00:38:28.079Z,0.00
2018-06-09T00:39:28.076Z,0.00
2018-06-09T00:40:28.049Z,0.00
2018-06-09T00:41:28.034Z,0.00
2018-06-09T00:42:28.020Z,0.00
2018-06-09T00:43:28.006Z,0.00
2018-06-09T00:44:27.992Z,0.00
2018-06-09T00:45:27.979Z,0.00
2018-06-09T00:46:27.967Z,0.00
2018-06-09T00:47:27.951Z,0.00
2018-06-09T00:48:27.938Z,0.00
2018-06-09T00:49:27.926Z,0.00
2018-06-09T00:50:27.914Z,0.00
2018-06-09T00:51:27.896Z,0.00
2018-06-09T00:52:27.883Z,0.00
2018-06-09T00:53:27.874Z,0.00
2018-06-09T00:54:27.855Z,0.00
2018-06-09T00:55:27.844Z,0.00
2018-06-09T00:56:27.835Z,0.00
2018-06-09T00:57:27.815Z,0.00
2018-06-09T00:58:27.799Z,0.00
2018-06-09T00:59:27.788Z,0.00
2018-06-09T01:00:27.778Z,0.00
2018-06-09T01:01:27.767Z,0.00
2018-06-09T01:02:27.744Z,0.00
2018-06-09T01:03:27.732Z,0.00
2018-06-09T01:04:27.745Z,0.00
2018-06-09T01:05:27.704Z,0.00
2018-06-09T01:06:27.690Z,0.00
2018-06-09T01:07:27.681Z,0.00
2018-06-09T01:08:27.663Z,0.00
2018-06-09T01:09:27.651Z,0.00
2018-06-09T01:10:27.634Z,0.00
2018-06-09T01:11:27.621Z,0.00
2018-06-09T01:12:27.607Z,0.00
2018-06-09T01:13:27.595Z,0.00
2018-06-09T01:14:27.575Z,0.00
2018-06-09T01:15:27.570Z,0.00
2018-06-09T01:16:27.550Z,0.00
2018-06-09T01:17:27.538Z,0.00
2018-06-09T01:18:27.522Z,0.00
2018-06-09T01:19:27.505Z,0.00
2018-06-09T01:20:27.492Z,0.00
2018-06-09T01:21:27.484Z,0.00
2018-06-09T01:22:27.464Z,0.00
2018-06-09T01:23:27.450Z,0.00
2018-06-09T01:24:27.437Z,0.00
2018-06-09T01:25:27.422Z,0.00
2018-06-09T01:26:27.408Z,0.00
2018-06-09T01:27:27.398Z,0.00
2018-06-09T01:28:27.379Z,0.00
2018-06-09T01:29:27.364Z,0.00
2018-06-09T01:30:27.355Z,0.00
2018-06-09T01:31:27.340Z,0.00
2018-06-09T01:32:27.325Z,0.00
2018-06-09T01:33:27.310Z,0.00
2018-06-09T01:34:27.294Z,0.00
2018-06-09T01:35:27.280Z,0.00
2018-06-09T01:36:27.267Z,0.00
2018-06-09T01:37:27.254Z,0.00
2018-06-09T01:38:27.236Z,0.00
2018-06-09T01:39:27.232Z,0.00
2018-06-09T01:40:27.208Z,0.00
2018-06-09T01:41:27.198Z,0.00
2018-06-09T01:42:27.181Z,0.00
2018-06-09T01:43:27.165Z,0.00
2018-06-09T01:44:27.153Z,0.00
2018-06-09T01:45:27.136Z,0.00
2018-06-09T01:46:27.123Z,0.00
2018-06-09T01:47:27.107Z,0.00
2018-06-09T01:48:27.092Z,0.00
2018-06-09T01:49:27.078Z,0.00
2018-06-09T01:50:27.065Z,0.00
2018-06-09T01:51:27.049Z,0.00
2018-06-09T01:52:27.035Z,0.00
2018-06-09T01:53:27.020Z,0.00
2018-06-09T01:54:27.004Z,0.00
2018-06-09T01:55:26.990Z,0.00
2018-06-09T01:56:26.979Z,0.00
2018-06-09T01:57:26.963Z,0.00
2018-06-09T01:58:26.948Z,0.00
2018-06-09T01:59:26.933Z,0.00
2018-06-09T02:00:26.917Z,0.00
2018-06-09T02:01:26.903Z,4.00
2018-06-09T02:02:26.888Z,4.00
2018-06-09T02:03:26.874Z,4.00
2018-06-09T02:04:26.864Z,0.00
2018-06-09T02:05:26.845Z,0.00
2018-06-09T02:06:26.829Z,0.00
2018-06-09T02:07:26.815Z,0.00
2018-06-09T02:08:26.802Z,4.00
2018-06-09T02:09:26.787Z,4.00
2018-06-09T02:10:26.772Z,0.00
2018-06-09T02:11:26.764Z,4.00
2018-06-09T02:12:26.743Z,4.00
2018-06-09T02:13:26.730Z,4.00
2018-06-09T02:14:26.714Z,4.00
2018-06-09T02:15:26.699Z,8.00
2018-06-09T02:16:26.687Z,4.00
2018-06-09T02:17:26.673Z,8.00
2018-06-09T02:18:26.656Z,8.00
2018-06-09T02:19:26.642Z,8.00
2018-06-09T02:20:26.628Z,12.00
2018-06-09T02:21:26.612Z,12.00
2018-06-09T02:22:26.597Z,12.00
2018-06-09T02:23:26.583Z,12.00
2018-06-09T02:24:26.569Z,12.00
2018-06-09T02:25:26.556Z,16.00
2018-06-09T02:26:26.538Z,20.00
2018-06-09T02:27:26.523Z,24.00
2018-06-09T02:28:26.511Z,24.00
2018-06-09T02:29:26.495Z,28.00
2018-06-09T02:30:26.479Z,32.00
2018-06-09T02:31:26.464Z,32.00
2018-06-09T02:32:26.451Z,36.00
2018-06-09T02:33:26.435Z,36.00
2018-06-09T02:34:26.421Z,36.00
2018-06-09T02:35:26.406Z,40.00
2018-06-09T02:36:26.390Z,44.00
2018-06-09T02:37:26.381Z,44.00
2018-06-09T02:38:26.360Z,48.00
2018-06-09T02:39:26.348Z,52.00
2018-06-09T02:40:26.331Z,56.00
2018-06-09T02:41:26.323Z,60.00
2018-06-09T02:42:26.306Z,64.00
2018-06-09T02:43:26.287Z,68.00
2018-06-09T02:44:26.271Z,72.00
2018-06-09T02:45:26.261Z,76.00
2018-06-09T02:46:26.247Z,80.00
2018-06-09T02:47:26.229Z,84.00
2018-06-09T02:48:26.212Z,88.00
2018-06-09T02:49:26.198Z,96.00
2018-06-09T02:50:26.181Z,100.00
2018-06-09T02:51:26.167Z,104.00
2018-06-09T02:52:26.152Z,112.00
2018-06-09T02:53:26.138Z,120.00
2018-06-09T02:54:26.126Z,128.00
2018-06-09T02:55:26.108Z,136.00
2018-06-09T02:56:26.094Z,140.00
2018-06-09T02:57:26.078Z,148.00
2018-06-09T02:58:26.063Z,160.00
2018-06-09T02:59:26.053Z,172.00
2018-06-09T03:00:26.032Z,180.00
2018-06-09T03:01:26.018Z,192.00
2018-06-09T03:02:26.008Z,208.00
2018-06-09T03:03:25.989Z,220.00
2018-06-09T03:04:25.976Z,232.00
2018-06-09T03:05:25.959Z,248.00
2018-06-09T03:06:25.941Z,260.00
2018-06-09T03:07:25.928Z,276.00
2018-06-09T03:08:25.914Z,292.00
2018-06-09T03:09:25.898Z,304.00
2018-06-09T03:10:25.882Z,324.00
2018-06-09T03:11:25.868Z,340.00
2018-06-09T03:12:25.855Z,356.00
2018-06-09T03:13:25.839Z,368.00
2018-06-09T03:14:25.823Z,380.00
2018-06-09T03:15:25.812Z,388.00
2018-06-09T03:16:25.793Z,400.00
2018-06-09T03:17:25.778Z,412.00
2018-06-09T03:18:25.762Z,424.00
2018-06-09T03:19:25.746Z,436.00
2018-06-09T03:20:25.735Z,456.00
2018-06-09T03:21:25.717Z,472.00
2018-06-09T03:22:25.700Z,492.00
2018-06-09T03:23:25.686Z,508.00
2018-06-09T03:24:25.675Z,520.00
2018-06-09T03:25:25.658Z,536.00
2018-06-09T03:26:25.645Z,552.00
2018-06-09T03:27:25.627Z,572.00
2018-06-09T03:28:25.612Z,588.00
2018-06-09T03:29:25.596Z,608.00
2018-06-09T03:30:25.582Z,628.00
2018-06-09T03:31:25.572Z,648.00
2018-06-09T03:32:25.558Z,664.00
2018-06-09T03:33:25.541Z,680.00
2018-06-09T03:34:25.521Z,696.00
2018-06-09T03:35:25.506Z,708.00
2018-06-09T03:36:25.496Z,720.00
2018-06-09T03:37:25.481Z,728.00
2018-06-09T03:38:25.461Z,736.00
2018-06-09T03:39:25.448Z,724.00
2018-06-09T03:40:25.433Z,748.00
2018-06-09T03:41:25.418Z,756.00
2018-06-09T03:42:25.406Z,760.00
2018-06-09T03:43:25.406Z,768.00
2018-06-09T03:44:25.375Z,776.00
2018-06-09T03:45:25.361Z,784.00
2018-06-09T03:46:25.345Z,796.00
2018-06-09T03:47:25.329Z,804.00
2018-06-09T03:48:25.312Z,812.00
2018-06-09T03:49:25.300Z,820.00
2018-06-09T03:50:25.284Z,832.00
2018-06-09T03:51:25.268Z,840.00
2018-06-09T03:52:25.254Z,848.00
2018-06-09T03:53:25.237Z,852.00
2018-06-09T03:54:25.223Z,860.00
2018-06-09T03:55:25.208Z,864.00
2018-06-09T03:56:25.194Z,872.00
2018-06-09T03:57:25.178Z,876.00
2018-06-09T03:58:25.164Z,884.00
2018-06-09T03:59:25.148Z,892.00
2018-06-09T04:00:25.134Z,900.00
2018-06-09T04:01:25.119Z,912.00
2018-06-09T04:02:25.111Z,920.00
2018-06-09T04:03:25.090Z,932.00
2018-06-09T04:04:25.075Z,944.00
2018-06-09T04:05:25.060Z,956.00
2018-06-09T04:06:25.043Z,964.00
2018-06-09T04:07:25.033Z,972.00
2018-06-09T04:08:25.017Z,980.00
2018-06-09T04:09:25.000Z,988.00
2018-06-09T04:10:24.986Z,996.00
2018-06-09T04:11:24.968Z,1004.00
2018-06-09T04:12:24.962Z,1016.00
2018-06-09T04:13:24.943Z,1028.00
2018-06-09T04:14:24.928Z,1040.00
2018-06-09T04:15:24.912Z,1056.00
2018-06-09T04:16:24.905Z,1076.00
2018-06-09T04:17:24.885Z,1088.00
2018-06-09T04:18:24.868Z,1104.00
2018-06-09T04:19:24.852Z,1116.00
2018-06-09T04:20:24.839Z,1128.00
2018-06-09T04:21:24.823Z,1144.00
2018-06-09T04:22:24.806Z,1156.00
2018-06-09T04:23:24.793Z,1164.00
2018-06-09T04:24:24.777Z,1184.00
2018-06-09T04:25:24.763Z,1200.00
2018-06-09T04:26:24.747Z,1224.00
2018-06-09T04:27:24.732Z,1240.00
2018-06-09T04:28:24.763Z,1248.00
2018-06-09T04:29:24.704Z,1264.00
2018-06-09T04:30:24.690Z,1268.00
2018-06-09T04:31:24.674Z,1276.00
2018-06-09T04:32:24.661Z,1284.00
2018-06-09T04:33:24.645Z,1288.00
2018-06-09T04:34:24.629Z,1296.00
2018-06-09T04:35:24.615Z,1304.00
2018-06-09T04:36:24.601Z,1308.00
2018-06-09T04:37:24.587Z,1316.00
2018-06-09T04:38:24.571Z,1320.00
2018-06-09T04:39:24.559Z,1328.00
2018-06-09T04:40:24.541Z,1336.00
2018-06-09T04:41:24.527Z,1336.00
2018-06-09T04:42:24.516Z,1344.00
2018-06-09T04:43:24.496Z,1352.00
2018-06-09T04:44:24.498Z,1360.00
2018-06-09T04:45:24.467Z,1364.00
2018-06-09T04:46:24.451Z,1372.00
2018-06-09T04:47:24.438Z,1380.00
2018-06-09T04:48:24.426Z,1388.00
2018-06-09T04:49:24.410Z,1392.00
2018-06-09T04:50:24.393Z,1400.00
2018-06-09T04:51:24.383Z,1412.00
2018-06-09T04:52:24.369Z,1424.00
2018-06-09T04:53:24.351Z,1432.00
2018-06-09T04:54:24.339Z,1444.00
2018-06-09T04:55:24.321Z,1460.00
2018-06-09T04:56:24.313Z,1468.00
2018-06-09T04:57:24.291Z,1484.00
2018-06-09T04:58:24.300Z,1496.00
2018-06-09T04:59:24.267Z,1508.00
2018-06-09T05:00:24.249Z,1528.00
2018-06-09T05:01:24.236Z,1544.00
2018-06-09T05:02:24.221Z,1560.00
2018-06-09T05:03:24.204Z,1572.00
2018-06-09T05:04:24.192Z,1584.00
2018-06-09T05:05:24.181Z,1592.00
2018-06-09T05:06:24.169Z,1604.00
2018-06-09T05:07:24.149Z,1624.00
2018-06-09T05:08:24.134Z,1640.00
2018-06-09T05:09:24.119Z,1648.00
2018-06-09T05:10:24.104Z,1656.00
2018-06-09T05:11:24.090Z,1664.00
2018-06-09T05:12:24.080Z,1660.00
2018-06-09T05:13:24.065Z,1640.00
2018-06-09T05:14:24.047Z,1656.00
2018-06-09T05:15:24.037Z,1692.00
2018-06-09T05:16:24.020Z,1716.00
2018-06-09T05:17:24.004Z,1764.00
2018-06-09T05:18:23.995Z,1788.00
2018-06-09T05:19:23.976Z,1804.00
2018-06-09T05:20:23.969Z,1816.00
2018-06-09T05:21:23.947Z,1824.00
2018-06-09T05:22:23.933Z,1824.00
2018-06-09T05:23:23.923Z,1828.00
2018-06-09T05:24:23.908Z,1840.00
2018-06-09T05:25:23.894Z,1852.00
2018-06-09T05:26:23.887Z,1864.00
2018-06-09T05:27:23.863Z,1880.00
2018-06-09T05:28:23.876Z,1884.00
2018-06-09T05:29:23.838Z,1884.00
2018-06-09T05:30:23.820Z,1872.00
2018-06-09T05:31:23.805Z,1876.00
2018-06-09T05:32:23.797Z,1884.00
2018-06-09T05:33:23.789Z,1896.00
2018-06-09T05:34:23.765Z,1936.00
2018-06-09T05:35:23.751Z,1992.00
2018-06-09T05:36:23.735Z,2036.00
2018-06-09T05:37:23.723Z,2076.00
2018-06-09T05:38:23.708Z,2112.00
2018-06-09T05:39:23.695Z,2140.00
2018-06-09T05:40:23.684Z,2160.00
2018-06-09T05:41:23.667Z,2184.00
2018-06-09T05:42:23.651Z,2216.00
2018-06-09T05:43:23.640Z,2256.00
2018-06-09T05:44:23.626Z,2296.00
2018-06-09T05:45:23.612Z,2336.00
2018-06-09T05:46:23.594Z,2376.00
2018-06-09T05:47:23.584Z,2408.00
2018-06-09T05:48:23.570Z,2444.00
2018-06-09T05:49:23.608Z,2480.00
2018-06-09T05:50:23.542Z,2508.00
2018-06-09T05:51:23.527Z,2540.00
2018-06-09T05:52:23.517Z,2564.00
2018-06-09T05:53:23.503Z,2588.00
2018-06-09T05:54:23.489Z,2636.00
2018-06-09T05:55:23.475Z,2676.00
2018-06-09T05:56:23.462Z,2700.00
2018-06-09T05:57:23.457Z,2720.00
2018-06-09T05:58:23.435Z,2740.00
2018-06-09T05:59:23.423Z,2752.00
2018-06-09T06:00:23.407Z,2768.00
2018-06-09T06:01:23.396Z,2776.00
2018-06-09T06:02:23.382Z,2788.00
2018-06-09T06:03:23.367Z,2792.00
2018-06-09T06:04:23.356Z,2804.00
2018-06-09T06:05:23.344Z,2816.00
2018-06-09T06:06:23.327Z,2840.00
2018-06-09T06:07:23.313Z,2872.00
2018-06-09T06:08:23.362Z,2904.00
2018-06-09T06:09:23.297Z,2924.00
2018-06-09T06:10:23.275Z,2956.00
2018-06-09T06:11:23.299Z,3004.00
2018-06-09T06:12:23.251Z,3040.00
2018-06-09T06:13:23.236Z,3072.00
2018-06-09T06:14:23.235Z,3104.00
2018-06-09T06:15:23.217Z,3136.00
2018-06-09T06:16:23.196Z,3152.00
2018-06-09T06:17:23.184Z,3176.00
2018-06-09T06:18:23.173Z,3196.00
2018-06-09T06:19:23.165Z,3216.00
2018-06-09T06:20:23.146Z,3224.00
2018-06-09T06:21:23.140Z,3212.00
2018-06-09T06:22:23.121Z,3204.00
2018-06-09T06:23:23.111Z,3212.00
2018-06-09T06:24:23.095Z,3236.00
2018-06-09T06:25:23.082Z,3236.00
2018-06-09T06:26:23.074Z,3240.00
2018-06-09T06:27:23.057Z,3268.00
2018-06-09T06:28:23.052Z,3308.00
2018-06-09T06:29:23.036Z,3316.00
2018-06-09T06:30:23.019Z,3328.00
2018-06-09T06:31:23.008Z,3336.00
2018-06-09T06:32:22.995Z,3352.00
2018-06-09T06:33:22.984Z,3364.00
2018-06-09T06:34:22.970Z,3368.00
2018-06-09T06:35:22.961Z,3376.00
2018-06-09T06:36:22.947Z,3380.00
2018-06-09T06:37:22.934Z,3388.00
2018-06-09T06:38:22.921Z,3408.00
2018-06-09T06:39:22.909Z,3424.00
2018-06-09T06:40:22.898Z,3428.00
2018-06-09T06:41:22.884Z,3468.00
2018-06-09T06:42:22.878Z,3460.00
2018-06-09T06:43:22.870Z,3440.00
2018-06-09T06:44:22.849Z,3440.00
2018-06-09T06:45:22.838Z,3444.00
2018-06-09T06:46:22.824Z,3452.00
2018-06-09T06:47:22.817Z,3464.00
2018-06-09T06:48:22.809Z,3488.00
2018-06-09T06:49:22.790Z,3520.00
2018-06-09T06:50:22.789Z,3528.00
2018-06-09T06:51:22.770Z,3540.00
2018-06-09T06:52:22.753Z,3584.00
2018-06-09T06:53:22.741Z,3632.00
2018-06-09T06:54:22.728Z,3696.00
2018-06-09T06:55:22.715Z,3704.00
2018-06-09T06:56:22.709Z,3684.00
2018-06-09T06:57:22.696Z,3684.00
2018-06-09T06:58:22.682Z,3608.00
2018-06-09T06:59:22.672Z,3604.00
2018-06-09T07:00:22.659Z,3636.00
2018-06-09T07:01:22.649Z,3736.00
2018-06-09T07:02:22.638Z,3864.00
2018-06-09T07:03:22.629Z,3968.00
2018-06-09T07:04:22.613Z,4052.00
2018-06-09T07:05:22.604Z,4136.00
2018-06-09T07:06:22.591Z,4216.00
2018-06-09T07:07:22.586Z,4252.00
2018-06-09T07:08:22.569Z,4316.00
2018-06-09T07:09:22.559Z,4372.00
2018-06-09T07:10:22.559Z,4392.00
2018-06-09T07:11:22.538Z,4424.00
2018-06-09T07:12:22.528Z,4392.00
2018-06-09T07:13:22.517Z,4516.00
2018-06-09T07:14:22.502Z,4536.00
2018-06-09T07:15:22.491Z,4560.00
2018-06-09T07:16:22.480Z,4540.00
2018-06-09T07:17:22.473Z,4492.00
2018-06-09T07:18:22.458Z,4440.00
2018-06-09T07:19:22.451Z,4428.00
2018-06-09T07:20:22.445Z,4412.00
2018-06-09T07:21:22.428Z,4272.00
2018-06-09T07:22:22.423Z,4380.00
2018-06-09T07:23:22.407Z,4408.00
2018-06-09T07:24:22.394Z,4428.00
2018-06-09T07:25:22.384Z,4464.00
2018-06-09T07:26:22.375Z,4524.00
2018-06-09T07:27:22.374Z,4552.00
2018-06-09T07:28:22.353Z,4580.00
2018-06-09T07:29:22.343Z,4616.00
2018-06-09T07:30:22.343Z,4620.00
2018-06-09T07:31:22.321Z,4612.00
2018-06-09T07:32:22.312Z,4616.00
2018-06-09T07:33:22.303Z,4628.00
2018-06-09T07:34:22.290Z,4636.00
2018-06-09T07:35:22.279Z,4632.00
2018-06-09T07:36:22.273Z,4640.00
2018-06-09T07:37:22.260Z,4664.00
2018-06-09T07:38:22.251Z,4672.00
2018-06-09T07:39:22.241Z,4688.00
2018-06-09T07:40:22.232Z,4692.00
2018-06-09T07:41:22.222Z,4692.00
2018-06-09T07:42:22.210Z,4704.00
2018-06-09T07:43:22.201Z,4740.00
2018-06-09T07:44:22.192Z,4776.00
2018-06-09T07:45:22.190Z,4824.00
2018-06-09T07:46:22.171Z,4864.00
2018-06-09T07:47:22.164Z,4900.00
2018-06-09T07:48:22.154Z,4912.00
2018-06-09T07:49:22.145Z,4932.00
2018-06-09T07:50:22.132Z,4972.00
2018-06-09T07:51:22.125Z,5020.00
2018-06-09T07:52:22.119Z,5068.00
2018-06-09T07:53:22.110Z,5080.00
2018-06-09T07:54:22.100Z,5136.00
2018-06-09T07:55:22.085Z,5164.00
2018-06-09T07:56:22.078Z,5200.00
2018-06-09T07:57:22.073Z,5252.00
2018-06-09T07:58:22.064Z,5288.00
2018-06-09T07:59:22.053Z,5280.00
2018-06-09T08:00:22.041Z,5316.00
2018-06-09T08:01:22.039Z,5348.00
2018-06-09T08:02:22.024Z,5420.00
2018-06-09T08:03:22.018Z,5504.00
2018-06-09T08:04:22.007Z,5692.00
2018-06-09T08:05:21.999Z,5964.00
2018-06-09T08:06:21.988Z,6272.00
2018-06-09T08:07:21.979Z,11016.00
2018-06-09T08:08:21.974Z,26496.00
2018-06-09T08:09:21.964Z,48256.00
2018-06-09T08:10:21.958Z,70944.00
2018-06-09T08:11:21.949Z,79680.00
2018-06-09T08:12:21.941Z,76032.00
2018-06-09T08:13:21.933Z,74016.00
2018-06-09T08:14:21.925Z,75776.00
2018-06-09T08:15:21.919Z,79904.00
2018-06-09T08:16:21.910Z,83872.00
2018-06-09T08:17:21.911Z,83520.00
2018-06-09T08:18:21.901Z,82016.00
2018-06-09T08:19:21.930Z,82144.00
2018-06-09T08:20:21.886Z,85056.00
2018-06-09T08:21:21.881Z,83552.00
2018-06-09T08:22:21.875Z,82400.00
2018-06-09T08:23:21.877Z,3456.00
2018-06-09T08:24:21.866Z,3376.00
2018-06-09T08:25:21.862Z,3392.00
2018-06-09T08:26:21.856Z,3528.00
2018-06-09T08:27:21.851Z,3536.00
2018-06-09T08:28:21.849Z,3504.00
2018-06-09T08:29:21.896Z,3512.00
2018-06-09T08:30:21.837Z,3528.00
2018-06-09T08:31:21.833Z,3556.00
2018-06-09T08:32:21.828Z,3552.00
2018-06-09T08:33:21.823Z,3560.00
2018-06-09T08:34:21.822Z,3564.00
2018-06-09T08:35:21.824Z,3576.00
2018-06-09T08:36:21.831Z,3552.00
2018-06-09T08:37:21.804Z,3556.00
2018-06-09T08:38:21.812Z,3540.00
2018-06-09T08:39:21.792Z,3580.00
2018-06-09T08:40:21.790Z,3596.00
2018-06-09T08:41:21.783Z,3608.00
2018-06-09T08:42:21.781Z,3628.00
2018-06-09T08:43:21.773Z,3756.00
2018-06-09T08:44:21.765Z,3900.00
2018-06-09T08:45:21.764Z,3904.00
2018-06-09T08:46:21.756Z,3868.00
2018-06-09T08:47:21.751Z,3884.00
2018-06-09T08:48:21.748Z,3880.00
2018-06-09T08:49:21.744Z,3884.00
2018-06-09T08:50:21.735Z,3876.00
2018-06-09T08:51:21.730Z,3852.00
2018-06-09T08:52:21.723Z,3852.00
2018-06-09T08:53:21.720Z,3824.00
2018-06-09T08:54:21.713Z,3804.00
2018-06-09T08:55:21.709Z,3784.00
2018-06-09T08:56:21.702Z,3776.00
2018-06-09T08:57:21.696Z,3772.00
2018-06-09T08:58:21.688Z,3772.00
2018-06-09T08:59:21.684Z,3784.00
2018-06-09T09:00:21.680Z,3800.00
2018-06-09T09:01:21.678Z,3800.00
2018-06-09T09:02:21.670Z,3828.00
2018-06-09T09:03:21.661Z,3840.00
2018-06-09T09:04:21.655Z,3876.00
2018-06-09T09:05:21.652Z,3884.00
2018-06-09T09:06:21.642Z,3884.00
2018-06-09T09:07:21.639Z,3896.00
2018-06-09T09:08:21.648Z,3864.00
2018-06-09T09:09:21.647Z,3940.00
2018-06-09T09:10:21.623Z,3920.00
2018-06-09T09:11:21.614Z,3952.00
2018-06-09T09:12:21.610Z,3964.00
2018-06-09T09:13:21.614Z,3960.00
2018-06-09T09:14:21.602Z,4012.00
2018-06-09T09:15:21.592Z,4056.00
2018-06-09T09:16:21.586Z,4104.00
2018-06-09T09:17:21.580Z,4184.00
2018-06-09T09:18:21.575Z,4264.00
2018-06-09T09:19:21.566Z,4316.00
2018-06-09T09:20:21.575Z,4348.00
2018-06-09T09:21:21.557Z,4368.00
2018-06-09T09:22:21.550Z,4420.00
2018-06-09T09:23:21.549Z,4448.00
2018-06-09T09:24:21.540Z,4484.00
2018-06-09T09:25:21.532Z,4504.00
2018-06-09T09:26:21.528Z,4520.00
2018-06-09T09:27:21.521Z,4524.00
2018-06-09T09:28:21.521Z,4572.00
2018-06-09T09:29:21.519Z,4616.00
2018-06-09T09:30:21.534Z,4668.00
2018-06-09T09:31:21.500Z,4748.00
2018-06-09T09:32:21.491Z,4796.00
2018-06-09T09:33:21.486Z,4868.00
2018-06-09T09:34:21.477Z,4884.00
2018-06-09T09:35:21.473Z,4912.00
2018-06-09T09:36:21.467Z,4956.00
2018-06-09T09:37:21.471Z,4992.00
2018-06-09T09:38:21.457Z,5000.00
2018-06-09T09:39:21.452Z,5016.00
2018-06-09T09:40:21.443Z,5052.00
2018-06-09T09:41:21.438Z,5104.00
2018-06-09T09:42:21.432Z,5140.00
2018-06-09T09:43:21.429Z,5200.00
2018-06-09T09:44:21.420Z,4972.00
2018-06-09T09:45:21.426Z,4624.00
2018-06-09T09:46:21.424Z,5240.00
2018-06-09T09:47:21.402Z,5276.00
2018-06-09T09:48:21.395Z,5260.00
2018-06-09T09:49:21.392Z,5300.00
2018-06-09T09:50:21.386Z,5072.00
2018-06-09T09:51:21.389Z,5236.00
2018-06-09T09:52:21.380Z,4784.00
2018-06-09T09:53:21.367Z,5556.00
2018-06-09T09:54:21.360Z,5432.00
2018-06-09T09:55:21.358Z,5208.00
2018-06-09T09:56:21.354Z,5424.00
2018-06-09T09:57:21.343Z,5072.00
2018-06-09T09:58:21.336Z,4364.00
2018-06-09T09:59:21.330Z,5644.00
2018-06-09T10:00:21.324Z,5448.00
2018-06-09T10:01:21.319Z,5692.00
2018-06-09T10:02:21.317Z,5556.00
2018-06-09T10:03:21.309Z,5520.00
2018-06-09T10:04:21.304Z,5496.00
2018-06-09T10:05:21.300Z,5424.00
2018-06-09T10:06:21.289Z,4764.00
2018-06-09T10:07:21.284Z,5408.00
2018-06-09T10:08:21.282Z,5028.00
2018-06-09T10:09:21.273Z,5620.00
2018-06-09T10:10:21.268Z,5584.00
2018-06-09T10:11:21.260Z,5572.00
2018-06-09T10:12:21.261Z,5388.00
2018-06-09T10:13:21.300Z,5308.00
2018-06-09T10:14:21.242Z,5280.00
2018-06-09T10:15:21.239Z,5284.00
2018-06-09T10:16:21.282Z,5304.00
2018-06-09T10:17:21.228Z,5356.00
2018-06-09T10:18:21.220Z,5420.00
2018-06-09T10:19:21.215Z,5448.00
2018-06-09T10:20:21.211Z,5456.00
2018-06-09T10:21:21.206Z,5456.00
2018-06-09T10:22:21.201Z,5460.00
2018-06-09T10:23:21.195Z,5496.00
2018-06-09T10:24:21.187Z,5524.00
2018-06-09T10:25:21.184Z,5520.00
2018-06-09T10:26:21.175Z,5512.00
2018-06-09T10:27:21.178Z,5500.00
2018-06-09T10:28:21.172Z,5508.00
2018-06-09T10:29:21.163Z,5524.00
2018-06-09T10:30:21.153Z,5544.00
2018-06-09T10:31:21.150Z,5580.00
2018-06-09T10:32:21.145Z,5628.00
2018-06-09T10:33:21.137Z,5640.00
2018-06-09T10:34:21.132Z,5672.00
2018-06-09T10:35:21.128Z,5704.00
2018-06-09T10:36:21.126Z,5720.00
2018-06-09T10:37:21.120Z,5724.00
2018-06-09T10:38:21.108Z,5760.00
2018-06-09T10:39:21.103Z,5764.00
2018-06-09T10:40:21.104Z,5808.00
2018-06-09T10:41:21.094Z,5848.00
2018-06-09T10:42:21.088Z,5868.00
2018-06-09T10:43:21.082Z,5896.00
2018-06-09T10:44:21.076Z,5956.00
2018-06-09T10:45:21.094Z,5968.00
2018-06-09T10:46:21.070Z,6084.00
2018-06-09T10:47:21.059Z,6120.00
2018-06-09T10:48:21.052Z,6108.00
2018-06-09T10:49:21.053Z,6172.00
2018-06-09T10:50:21.042Z,6124.00
2018-06-09T10:51:21.036Z,6064.00
2018-06-09T10:52:21.031Z,6064.00
2018-06-09T10:53:21.031Z,6104.00
2018-06-09T10:54:21.019Z,6352.00
2018-06-09T10:55:21.018Z,6776.00
2018-06-09T10:56:21.010Z,7048.00
2018-06-09T10:57:21.005Z,7016.00
2018-06-09T10:58:21.007Z,6804.00
2018-06-09T10:59:20.995Z,6468.00
2018-06-09T11:00:20.989Z,6284.00
2018-06-09T11:01:20.983Z,6284.00
2018-06-09T11:02:20.978Z,6380.00
2018-06-09T11:03:20.975Z,6128.00
2018-06-09T11:04:20.969Z,6104.00
2018-06-09T11:05:20.964Z,6212.00
2018-06-09T11:06:20.958Z,6364.00
2018-06-09T11:07:20.951Z,6776.00
2018-06-09T11:08:20.945Z,7340.00
2018-06-09T11:09:20.940Z,7600.00
2018-06-09T11:10:20.935Z,7440.00
2018-06-09T11:11:20.930Z,6944.00
2018-06-09T11:12:20.926Z,6596.00
2018-06-09T11:13:20.919Z,6536.00
2018-06-09T11:14:20.914Z,6560.00
2018-06-09T11:15:20.910Z,6568.00
2018-06-09T11:16:20.904Z,6692.00
2018-06-09T11:17:20.898Z,6632.00
2018-06-09T11:18:20.899Z,6704.00
2018-06-09T11:19:20.894Z,6852.00
2018-06-09T11:20:20.884Z,6896.00
2018-06-09T11:21:20.878Z,6928.00
2018-06-09T11:22:20.874Z,6948.00
2018-06-09T11:23:20.878Z,6928.00
2018-06-09T11:24:20.904Z,7240.00
2018-06-09T11:25:20.857Z,7268.00
2018-06-09T11:26:20.855Z,7356.00
2018-06-09T11:27:20.847Z,7496.00
2018-06-09T11:28:20.843Z,7432.00
2018-06-09T11:29:20.838Z,7444.00
2018-06-09T11:30:20.833Z,7492.00
2018-06-09T11:31:20.839Z,7716.00
2018-06-09T11:32:20.821Z,8240.00
2018-06-09T11:33:20.820Z,8148.00
2018-06-09T11:34:20.811Z,7764.00
2018-06-09T11:35:20.809Z,7748.00
2018-06-09T11:36:20.806Z,8088.00
2018-06-09T11:37:20.797Z,8032.00
2018-06-09T11:38:20.792Z,7852.00
2018-06-09T11:39:20.787Z,7768.00
2018-06-09T11:40:20.781Z,7752.00
2018-06-09T11:41:20.777Z,6060.00
2018-06-09T11:42:20.771Z,8464.00
2018-06-09T11:43:20.775Z,8268.00
2018-06-09T11:44:20.764Z,8200.00
2018-06-09T11:45:20.759Z,8472.00
2018-06-09T11:46:20.752Z,8644.00
2018-06-09T11:47:20.752Z,8904.00
2018-06-09T11:48:20.746Z,9188.00
2018-06-09T11:49:20.737Z,9384.00
2018-06-09T11:50:20.732Z,9480.00
2018-06-09T11:51:20.730Z,9776.00
2018-06-09T11:52:20.723Z,10204.00
2018-06-09T11:53:20.719Z,10728.00
2018-06-09T11:54:20.713Z,28544.00
2018-06-09T11:55:20.709Z,75648.00
2018-06-09T11:56:20.705Z,92928.00
2018-06-09T11:57:20.700Z,96032.00
2018-06-09T11:58:20.698Z,100160.00
2018-06-09T11:59:20.697Z,98688.00
2018-06-09T12:00:20.689Z,98368.00
2018-06-09T12:01:20.691Z,94208.00
2018-06-09T12:02:20.686Z,91328.00
2018-06-09T12:03:20.682Z,93600.00
2018-06-09T12:04:20.675Z,95264.00
2018-06-09T12:05:20.678Z,95520.00
2018-06-09T12:06:20.667Z,98784.00
2018-06-09T12:07:20.666Z,99296.00
2018-06-09T12:08:20.666Z,98272.00
2018-06-09T12:09:20.666Z,96768.00
2018-06-09T12:10:20.659Z,96864.00
2018-06-09T12:11:20.674Z,96032.00
2018-06-09T12:12:20.657Z,95072.00
2018-06-09T12:13:20.654Z,94592.00
2018-06-09T12:14:20.659Z,94976.00
2018-06-09T12:15:20.650Z,93088.00
2018-06-09T12:16:20.650Z,97344.00
2018-06-09T12:17:20.737Z,99264.00
2018-06-09T12:18:20.647Z,98208.00
2018-06-09T12:19:20.649Z,96672.00
2018-06-09T12:20:20.655Z,94592.00
2018-06-09T12:21:20.644Z,95488.00